Time;durP1;ratioP1;P1;durP2;ratioP2;P2;SDS_P1;SDS_P2;PMS_P1;PMS_P2;Temp;Humidity;BMP_temperature;BMP_pressure;BME280_temperature;BME280_humidity;BME280_pressure;Samples;Min_cycle;Max_cycle;Signal;HPM_P1;HPM_P2
2022/12/10 00:01:42;;;;;;;;;;;-1.40;99.90;;;;;;5033022;28;20354;-81
2022/12/10 00:04:08;;;;;;;;;;;-3.00;99.90;;;;;;5045754;28;20374;-81
2022/12/10 00:06:35;;;;;;;;;;;-2.80;99.90;;;;;;5040972;28;19970;-80
2022/12/10 00:09:01;;;;;;;;;;;-2.90;99.90;;;;;;5041018;28;19924;-80
2022/12/10 00:11:27;;;;;;;;;;;-2.80;99.90;;;;;;5047234;28;19924;-81
2022/12/10 00:13:53;;;;;;;;;;;-2.70;99.90;;;;;;5040959;28;19925;-81
2022/12/10 00:16:19;;;;;;;;;;;-2.00;99.90;;;;;;5055536;28;19929;-81
2022/12/10 00:18:45;;;;;;;;;;;-2.70;99.90;;;;;;5057947;28;19927;-81
2022/12/10 00:21:12;;;;;;;;;;;-2.70;99.90;;;;;;5021558;28;19921;-80
2022/12/10 00:23:37;;;;;;;;;;;-2.10;99.90;;;;;;5053281;28;19929;-81
2022/12/10 00:26:03;;;;;;;;;;;-2.80;99.90;;;;;;5050545;28;19924;-81
2022/12/10 00:28:29;;;;;;;;;;;-2.80;99.90;;;;;;5053881;28;19927;-81
2022/12/10 00:30:55;;;;;;;;;;;-2.80;99.90;;;;;;5041925;28;19943;-80
2022/12/10 00:33:20;;;;;;;;;;;-2.90;99.90;;;;;;5054861;28;19932;-81
2022/12/10 00:35:46;;;;;;;;;;;-2.80;99.90;;;;;;5034484;28;19928;-80
2022/12/10 00:38:11;;;;;;;;;;;-2.80;99.90;;;;;;5036897;28;19928;-81
2022/12/10 00:40:37;;;;;;;;;;;-2.80;99.90;;;;;;5034544;28;19925;-81
2022/12/10 00:43:02;;;;;;;;;;;-2.80;99.90;;;;;;5034316;28;19971;-81
2022/12/10 00:45:28;;;;;;;;;;;-2.80;99.90;;;;;;5050806;28;20276;-81
2022/12/10 00:47:53;;;;;;;;;;;-2.90;99.90;;;;;;5056315;28;19944;-81
2022/12/10 00:50:19;;;;;;;;;;;-2.90;99.90;;;;;;5042397;28;20071;-81
2022/12/10 00:52:44;;;;;;;;;;;-2.90;99.90;;;;;;5047445;28;19991;-81
2022/12/10 00:55:10;;;;;;;;;;;-2.90;99.90;;;;;;5032805;28;19927;-81
2022/12/10 00:57:35;;;;;;;;;;;-2.90;99.90;;;;;;5020371;28;19932;-81
2022/12/10 01:00:01;;;;;;;;;;;-2.80;99.90;;;;;;5021582;28;19928;-81
2022/12/10 01:02:27;;;;;;;;;;;-2.90;99.90;;;;;;5036146;28;19927;-81
2022/12/10 01:04:53;;;;;;;;;;;-2.90;99.90;;;;;;5039436;28;20017;-81
2022/12/10 01:07:19;;;;;;;;;;;-2.90;99.90;;;;;;5039083;28;19977;-81
2022/12/10 01:09:44;;;;;;;;;;;-2.90;99.90;;;;;;5052341;28;19925;-81
2022/12/10 01:12:10;;;;;;;;;;;-2.00;99.90;;;;;;5039396;28;20385;-81
2022/12/10 01:14:36;;;;;;;;;;;-2.80;99.90;;;;;;5038584;28;19929;-81
2022/12/10 01:17:02;;;;;;;;;;;-2.80;99.90;;;;;;5039839;28;19921;-81
2022/12/10 01:19:28;;;;;;;;;;;-1.80;99.90;;;;;;5048060;28;20401;-81
2022/12/10 01:21:54;;;;;;;;;;;-2.10;99.90;;;;;;5037573;28;20008;-81
2022/12/10 01:24:20;;;;;;;;;;;-2.70;99.90;;;;;;5038495;28;20008;-81
2022/12/10 01:26:46;;;;;;;;;;;-2.70;99.90;;;;;;5054598;28;19921;-81
2022/12/10 01:29:11;;;;;;;;;;;-2.60;99.90;;;;;;5042263;28;19972;-81
2022/12/10 01:31:37;;;;;;;;;;;-1.80;99.90;;;;;;5037048;28;19951;-81
2022/12/10 01:34:03;;;;;;;;;;;-2.40;99.90;;;;;;5055709;28;19951;-81
2022/12/10 01:36:31;;;;;;;;;;;-2.20;99.90;;;;;;5021602;28;19925;-81
2022/12/10 01:38:56;;;;;;;;;;;-2.10;99.90;;;;;;5048270;28;19925;-80
2022/12/10 01:41:26;;;;;;;;;;;-2.00;99.90;;;;;;5037270;28;19928;-81
2022/12/10 01:43:52;;;;;;;;;;;-1.90;99.90;;;;;;5040289;28;20069;-81
2022/12/10 01:46:18;;;;;;;;;;;-1.80;99.90;;;;;;5054188;28;20003;-80
2022/12/10 01:48:44;;;;;;;;;;;-1.40;99.90;;;;;;5037249;28;19954;-80
2022/12/10 01:51:10;;;;;;;;;;;-0.50;99.90;;;;;;5050881;28;19920;-81
2022/12/10 01:53:36;;;;;;;;;;;-1.70;99.90;;;;;;5042302;28;19948;-81
2022/12/10 01:56:02;;;;;;;;;;;-1.70;99.90;;;;;;5019636;28;20386;-81
2022/12/10 01:58:27;;;;;;;;;;;-1.70;99.90;;;;;;5039279;28;19928;-80
2022/12/10 02:00:53;;;;;;;;;;;-0.70;99.90;;;;;;5031343;28;19920;-81
2022/12/10 02:03:23;;;;;;;;;;;-1.70;99.90;;;;;;5050207;28;21291;-81
2022/12/10 02:05:52;;;;;;;;;;;-1.60;99.90;;;;;;5034943;28;20097;-81
2022/12/10 02:08:22;;;;;;;;;;;-0.80;99.90;;;;;;5036368;28;19927;-80
2022/12/10 02:10:47;;;;;;;;;;;-1.60;99.90;;;;;;5031394;28;19928;-80
2022/12/10 02:13:18;;;;;;;;;;;-1.70;99.90;;;;;;5034449;28;20293;-81
2022/12/10 02:16:16;;;;;;;;;;;-1.70;99.90;;;;;;5043752;28;19927;-81
2022/12/10 02:18:51;;;;;;;;;;;-1.70;99.90;;;;;;5011825;28;19929;-81
2022/12/10 02:21:19;;;;;;;;;;;-1.70;99.90;;;;;;5048263;28;19932;-81
2022/12/10 02:23:49;;;;;;;;;;;-1.70;99.90;;;;;;5044782;28;20281;-81
2022/12/10 02:26:19;;;;;;;;;;;-1.70;99.90;;;;;;5033922;28;20409;-80
2022/12/10 02:29:04;;;;;;;;;;;-1.80;99.90;;;;;;5053457;28;19932;-81
2022/12/10 02:31:31;;;;;;;;;;;-1.80;99.90;;;;;;5043159;28;20044;-81
2022/12/10 02:33:58;;;;;;;;;;;-1.90;99.90;;;;;;5035227;28;19970;-80
2022/12/10 02:36:27;;;;;;;;;;;-1.90;99.90;;;;;;5050704;28;19921;-80
2022/12/10 02:38:54;;;;;;;;;;;-2.00;99.90;;;;;;5051975;28;19920;-81
2022/12/10 02:41:22;;;;;;;;;;;-2.00;99.90;;;;;;5048793;28;19927;-81
2022/12/10 02:43:51;;;;;;;;;;;-1.00;99.90;;;;;;5033174;28;19920;-81
2022/12/10 02:46:16;;;;;;;;;;;-2.20;99.90;;;;;;5031341;28;19921;-80
2022/12/10 02:48:42;;;;;;;;;;;-2.20;99.90;;;;;;5046928;28;19920;-81
2022/12/10 02:51:08;;;;;;;;;;;-2.30;99.90;;;;;;5049837;28;19921;-81
2022/12/10 02:53:33;;;;;;;;;;;-1.60;99.90;;;;;;5053148;28;19932;-81
2022/12/10 02:55:59;;;;;;;;;;;-2.40;99.90;;;;;;5032496;28;19999;-81
2022/12/10 02:58:43;;;;;;;;;;;-2.40;99.90;;;;;;5032735;28;20255;-81
2022/12/10 03:01:12;;;;;;;;;;;-2.50;99.90;;;;;;5050923;28;20525;-80
2022/12/10 03:03:44;;;;;;;;;;;-2.60;99.90;;;;;;5046190;28;20325;-81
2022/12/10 03:06:17;;;;;;;;;;;-2.60;99.90;;;;;;5048247;28;19947;-81
2022/12/10 03:08:48;;;;;;;;;;;-2.70;99.90;;;;;;5038096;28;19920;-81
2022/12/10 03:11:15;;;;;;;;;;;-2.70;99.90;;;;;;5046743;28;19921;-81
2022/12/10 03:13:41;;;;;;;;;;;-2.60;99.90;;;;;;5038251;28;19925;-80
2022/12/10 03:16:07;;;;;;;;;;;-2.80;99.90;;;;;;5041675;28;20386;-81
2022/12/10 03:18:34;;;;;;;;;;;-2.80;99.90;;;;;;5034791;28;19929;-80
2022/12/10 03:21:02;;;;;;;;;;;-2.80;99.90;;;;;;5038697;28;19932;-81
2022/12/10 03:23:29;;;;;;;;;;;-2.90;99.90;;;;;;5052083;28;20456;-81
2022/12/10 03:25:55;;;;;;;;;;;-2.90;99.90;;;;;;5049544;28;19956;-80
2022/12/10 03:28:21;;;;;;;;;;;-2.80;99.90;;;;;;5058478;28;20286;-81
2022/12/10 03:30:47;;;;;;;;;;;-2.80;99.90;;;;;;5038725;28;19988;-80
2022/12/10 03:33:13;;;;;;;;;;;-2.70;99.90;;;;;;5025963;28;19933;-81
2022/12/10 03:35:39;;;;;;;;;;;-2.70;99.90;;;;;;5034229;28;19956;-81
2022/12/10 03:38:05;;;;;;;;;;;-2.70;99.90;;;;;;5017568;28;19920;-81
2022/12/10 03:40:31;;;;;;;;;;;-2.80;99.90;;;;;;5033963;28;19998;-81
2022/12/10 03:42:57;;;;;;;;;;;-2.80;99.90;;;;;;5049163;28;20427;-80
2022/12/10 03:45:22;;;;;;;;;;;-2.80;99.90;;;;;;5049727;28;19928;-81
2022/12/10 03:47:49;;;;;;;;;;;-2.80;99.90;;;;;;5041692;28;19927;-81
2022/12/10 03:50:14;;;;;;;;;;;-2.80;99.90;;;;;;5038679;28;19920;-81
2022/12/10 03:52:40;;;;;;;;;;;-2.80;99.90;;;;;;5051906;28;20416;-81
2022/12/10 03:55:06;;;;;;;;;;;-1.50;99.90;;;;;;5022489;28;19928;-81
2022/12/10 03:57:32;;;;;;;;;;;-2.90;99.90;;;;;;5035563;28;19956;-80
2022/12/10 03:59:58;;;;;;;;;;;-2.90;99.90;;;;;;5042943;28;19978;-81
2022/12/10 04:02:23;;;;;;;;;;;-2.90;99.90;;;;;;5020742;28;19920;-81
2022/12/10 04:04:49;;;;;;;;;;;-2.90;99.90;;;;;;5038790;28;19973;-81
2022/12/10 04:07:14;;;;;;;;;;;-2.90;99.90;;;;;;5041322;28;19936;-81
2022/12/10 04:09:40;;;;;;;;;;;-3.00;99.90;;;;;;5041585;28;19934;-81
2022/12/10 04:12:06;;;;;;;;;;;-3.00;99.90;;;;;;5056186;28;19928;-81
2022/12/10 04:17:16;;;;;;;;;;;-3.10;99.90;;;;;;5059371;28;19966;-81
2022/12/10 04:19:42;;;;;;;;;;;-2.50;99.90;;;;;;5022980;28;19921;-80
2022/12/10 04:27:37;;;;;;;;;;;-2.00;99.90;;;;;;5058117;28;19921;-81
2022/12/10 04:30:05;;;;;;;;;;;-3.30;99.90;;;;;;5037454;28;20428;-80
2022/12/10 04:32:30;;;;;;;;;;;-3.30;99.90;;;;;;5042424;28;20054;-80
2022/12/10 04:34:56;;;;;;;;;;;-3.40;99.90;;;;;;5036376;28;20401;-81
2022/12/10 04:37:22;;;;;;;;;;;-3.40;99.90;;;;;;5056241;28;20049;-81
2022/12/10 04:39:51;;;;;;;;;;;-2.70;99.90;;;;;;5022252;28;19925;-79
2022/12/10 04:42:17;;;;;;;;;;;-3.40;99.90;;;;;;5039450;28;19948;-81
2022/12/10 04:44:43;;;;;;;;;;;-3.40;99.90;;;;;;5045085;28;19931;-80
2022/12/10 04:47:12;;;;;;;;;;;-3.40;99.90;;;;;;5016470;28;19921;-81
2022/12/10 04:49:37;;;;;;;;;;;-3.50;99.90;;;;;;5037574;28;19932;-81
2022/12/10 04:52:04;;;;;;;;;;;-3.50;99.90;;;;;;5053426;28;20390;-81
2022/12/10 04:54:29;;;;;;;;;;;-3.50;99.90;;;;;;5052024;28;20003;-80
2022/12/10 04:56:55;;;;;;;;;;;-2.30;99.90;;;;;;5039305;28;20016;-80
2022/12/10 04:59:21;;;;;;;;;;;-3.60;99.90;;;;;;5038148;28;19977;-81
2022/12/10 05:01:47;;;;;;;;;;;-2.70;99.90;;;;;;5037166;28;19927;-81
2022/12/10 05:04:14;;;;;;;;;;;-3.50;99.90;;;;;;5030819;28;20427;-81
2022/12/10 05:06:40;;;;;;;;;;;-3.40;99.90;;;;;;5047138;28;19920;-81
2022/12/10 05:09:06;;;;;;;;;;;-3.40;99.90;;;;;;5041829;28;20366;-81
2022/12/10 05:11:33;;;;;;;;;;;-3.40;99.90;;;;;;5053366;28;20607;-81
2022/12/10 05:13:58;;;;;;;;;;;-2.30;99.90;;;;;;5038874;28;19925;-81
2022/12/10 05:16:25;;;;;;;;;;;-3.30;99.90;;;;;;5037975;28;20365;-81
2022/12/10 05:18:52;;;;;;;;;;;-3.40;99.90;;;;;;5038360;28;20381;-81
2022/12/10 05:21:18;;;;;;;;;;;-3.50;99.90;;;;;;5054909;28;19978;-80
2022/12/10 05:23:45;;;;;;;;;;;-3.50;99.90;;;;;;5036026;28;20055;-81
2022/12/10 05:26:11;;;;;;;;;;;-3.50;99.90;;;;;;5050402;28;19925;-81
2022/12/10 05:28:39;;;;;;;;;;;-3.60;99.90;;;;;;5039910;28;20307;-81
2022/12/10 05:31:05;;;;;;;;;;;-2.80;99.90;;;;;;5051807;28;19928;-80
2022/12/10 05:33:31;;;;;;;;;;;-3.60;99.90;;;;;;5020676;28;19985;-81
2022/12/10 05:35:58;;;;;;;;;;;-3.60;99.90;;;;;;5025945;28;20024;-81
2022/12/10 05:38:24;;;;;;;;;;;-3.00;99.90;;;;;;5047561;28;19982;-81
2022/12/10 05:40:50;;;;;;;;;;;-3.70;99.90;;;;;;5049868;28;20382;-80
2022/12/10 05:43:15;;;;;;;;;;;-3.70;99.90;;;;;;5018456;28;19925;-81
2022/12/10 05:45:41;;;;;;;;;;;-2.00;99.90;;;;;;5039810;28;20389;-80
2022/12/10 05:48:08;;;;;;;;;;;-3.70;99.90;;;;;;5035232;28;19928;-81
2022/12/10 05:50:33;;;;;;;;;;;-3.70;99.90;;;;;;5037549;28;19960;-81
2022/12/10 05:52:59;;;;;;;;;;;-3.70;99.90;;;;;;5032739;28;19971;-81
2022/12/10 05:55:26;;;;;;;;;;;-1.40;99.90;;;;;;5015853;28;19924;-82
2022/12/10 05:57:52;;;;;;;;;;;-3.50;99.90;;;;;;5036729;28;19943;-81
2022/12/10 06:00:17;;;;;;;;;;;-3.50;99.90;;;;;;5019501;28;20024;-81
2022/12/10 06:02:43;;;;;;;;;;;-2.50;99.90;;;;;;5041327;28;19968;-81
2022/12/10 06:05:09;;;;;;;;;;;-3.60;99.90;;;;;;5036539;28;19920;-81
2022/12/10 06:07:35;;;;;;;;;;;-3.60;99.90;;;;;;5036276;28;19928;-81
2022/12/10 06:10:00;;;;;;;;;;;-3.60;99.90;;;;;;5049526;28;19931;-81
2022/12/10 06:12:26;;;;;;;;;;;-2.50;99.90;;;;;;5052614;28;19925;-81
2022/12/10 06:14:51;;;;;;;;;;;-3.70;99.90;;;;;;5051213;28;21455;-81
2022/12/10 06:17:17;;;;;;;;;;;-3.70;99.90;;;;;;5053532;28;19936;-81
2022/12/10 06:19:42;;;;;;;;;;;-3.60;99.90;;;;;;5034900;28;19935;-81
2022/12/10 06:22:08;;;;;;;;;;;-3.50;99.90;;;;;;5026441;28;19933;-81
2022/12/10 06:24:34;;;;;;;;;;;-3.50;99.90;;;;;;5043371;28;19921;-81
2022/12/10 06:26:59;;;;;;;;;;;-3.50;99.90;;;;;;5051096;28;19956;-81
2022/12/10 06:29:25;;;;;;;;;;;-3.50;99.90;;;;;;5054367;28;19927;-81
2022/12/10 06:31:50;;;;;;;;;;;-3.50;99.90;;;;;;5054806;28;19925;-81
2022/12/10 06:34:16;;;;;;;;;;;-3.50;99.90;;;;;;5025116;28;19975;-81
2022/12/10 06:36:41;;;;;;;;;;;-3.50;99.90;;;;;;5034891;28;19928;-81
2022/12/10 06:39:07;;;;;;;;;;;-2.70;99.90;;;;;;5036100;28;19920;-81
2022/12/10 06:41:32;;;;;;;;;;;-3.60;99.90;;;;;;5046166;28;19925;-81
2022/12/10 06:43:58;;;;;;;;;;;-3.70;99.90;;;;;;5015640;28;19920;-81
2022/12/10 06:46:25;;;;;;;;;;;-3.70;99.90;;;;;;5052879;28;19946;-81
2022/12/10 06:48:50;;;;;;;;;;;-3.70;99.90;;;;;;5052882;28;19921;-79
2022/12/10 06:51:17;;;;;;;;;;;-3.80;99.90;;;;;;5031376;28;19921;-80
2022/12/10 06:53:43;;;;;;;;;;;-3.80;99.90;;;;;;5037971;28;19929;-81
2022/12/10 06:56:12;;;;;;;;;;;-3.80;99.90;;;;;;5038866;28;20015;-82
2022/12/10 06:58:40;;;;;;;;;;;-3.80;99.90;;;;;;5053269;28;19952;-81
2022/12/10 07:01:07;;;;;;;;;;;-3.80;99.90;;;;;;5045637;28;19929;-81
2022/12/10 07:03:32;;;;;;;;;;;-3.80;99.90;;;;;;5032731;28;20278;-81
2022/12/10 07:05:59;;;;;;;;;;;-3.80;99.90;;;;;;5052583;28;19935;-81
2022/12/10 07:08:24;;;;;;;;;;;-3.70;99.90;;;;;;5041532;28;20004;-81
2022/12/10 07:10:50;;;;;;;;;;;-2.60;99.90;;;;;;5043288;28;20008;-81
2022/12/10 07:13:15;;;;;;;;;;;-3.70;99.90;;;;;;5032240;28;19951;-81
2022/12/10 07:15:41;;;;;;;;;;;-2.90;99.90;;;;;;5037743;28;20025;-81
2022/12/10 07:18:06;;;;;;;;;;;-3.40;99.90;;;;;;5033058;28;19921;-81
2022/12/10 07:20:32;;;;;;;;;;;-2.30;99.90;;;;;;5055870;28;19927;-81
2022/12/10 07:22:57;;;;;;;;;;;-3.40;99.90;;;;;;5035148;28;19925;-81
2022/12/10 07:25:23;;;;;;;;;;;-3.40;99.90;;;;;;5040146;28;19932;-81
2022/12/10 07:27:49;;;;;;;;;;;-3.50;99.90;;;;;;5036831;28;20003;-79
2022/12/10 07:30:14;;;;;;;;;;;-3.40;99.90;;;;;;5043356;28;20394;-81
2022/12/10 07:32:40;;;;;;;;;;;-2.10;99.90;;;;;;5049326;28;19932;-80
2022/12/10 07:35:05;;;;;;;;;;;-3.20;99.90;;;;;;5045141;28;19952;-81
2022/12/10 07:37:31;;;;;;;;;;;-3.20;99.90;;;;;;5022809;28;19921;-81
2022/12/10 07:39:57;;;;;;;;;;;-2.80;99.90;;;;;;5048000;28;19929;-80
2022/12/10 07:42:22;;;;;;;;;;;-2.60;99.90;;;;;;5054182;28;20441;-82
2022/12/10 07:44:48;;;;;;;;;;;-2.30;99.90;;;;;;5041730;28;19932;-80
2022/12/10 07:47:13;;;;;;;;;;;-3.30;99.90;;;;;;5062817;28;19921;-80
2022/12/10 07:49:39;;;;;;;;;;;-3.40;99.90;;;;;;5040872;28;20035;-80
2022/12/10 07:52:05;;;;;;;;;;;-3.40;99.90;;;;;;5043296;28;19920;-80
2022/12/10 07:54:30;;;;;;;;;;;-3.40;99.90;;;;;;5060484;28;19920;-80
2022/12/10 07:56:56;;;;;;;;;;;-3.40;99.90;;;;;;5055581;28;19935;-80
2022/12/10 07:59:21;;;;;;;;;;;-3.40;99.90;;;;;;5022484;28;19921;-81
2022/12/10 08:01:49;;;;;;;;;;;-3.40;99.90;;;;;;5037050;28;19928;-79
2022/12/10 08:04:14;;;;;;;;;;;-3.40;99.90;;;;;;5039390;28;19925;-80
2022/12/10 08:06:40;;;;;;;;;;;-2.60;99.90;;;;;;5051813;28;19928;-81
2022/12/10 08:09:06;;;;;;;;;;;-3.40;99.90;;;;;;5043368;28;19921;-80
2022/12/10 08:11:32;;;;;;;;;;;-3.40;99.90;;;;;;5064564;28;19920;-80
2022/12/10 08:13:58;;;;;;;;;;;-1.90;99.90;;;;;;5044131;28;20307;-81
2022/12/10 08:16:25;;;;;;;;;;;-3.30;99.90;;;;;;5049750;28;19931;-79
2022/12/10 08:18:51;;;;;;;;;;;-3.30;99.90;;;;;;5041168;28;19921;-80
2022/12/10 08:21:18;;;;;;;;;;;-3.20;99.90;;;;;;5011850;28;20790;-81
2022/12/10 08:23:44;;;;;;;;;;;-3.10;99.90;;;;;;5043450;28;19925;-80
2022/12/10 08:26:10;;;;;;;;;;;-3.10;99.90;;;;;;5045092;28;19931;-79
2022/12/10 08:28:36;;;;;;;;;;;-3.00;99.90;;;;;;5040884;28;19925;-78
2022/12/10 08:31:02;;;;;;;;;;;-2.80;99.90;;;;;;5046179;28;19943;-78
2022/12/10 08:33:28;;;;;;;;;;;-2.70;99.90;;;;;;5054266;28;19968;-77
2022/12/10 08:35:56;;;;;;;;;;;-2.60;99.90;;;;;;5059263;28;19975;-77
2022/12/10 08:38:22;;;;;;;;;;;-2.50;99.90;;;;;;5040021;28;19960;-78
2022/12/10 08:40:48;;;;;;;;;;;-2.50;99.90;;;;;;5035420;28;19969;-79
2022/12/10 08:43:14;;;;;;;;;;;-2.40;99.90;;;;;;5058733;28;20369;-78
2022/12/10 08:45:39;;;;;;;;;;;-2.30;99.90;;;;;;5020457;28;19966;-77
2022/12/10 08:48:05;;;;;;;;;;;-2.30;99.90;;;;;;5052680;28;19920;-77
2022/12/10 08:50:30;;;;;;;;;;;-2.20;99.90;;;;;;5054900;28;19921;-77
2022/12/10 08:52:56;;;;;;;;;;;-2.20;99.90;;;;;;5054660;28;19940;-77
2022/12/10 08:55:21;;;;;;;;;;;-2.00;99.90;;;;;;5053168;28;20394;-80
2022/12/10 08:57:47;;;;;;;;;;;-1.80;99.90;;;;;;5046813;28;19932;-78
2022/12/10 09:00:13;;;;;;;;;;;-0.80;99.90;;;;;;5060173;28;20566;-80
2022/12/10 09:02:39;;;;;;;;;;;-1.10;99.90;;;;;;5036505;28;19927;-79
2022/12/10 09:05:05;;;;;;;;;;;-1.00;99.90;;;;;;5049569;28;19925;-78
2022/12/10 09:07:30;;;;;;;;;;;-0.90;99.90;;;;;;5034498;28;19932;-77
2022/12/10 09:09:56;;;;;;;;;;;-0.70;99.90;;;;;;5053770;28;19947;-77
2022/12/10 09:12:22;;;;;;;;;;;-0.90;99.90;;;;;;5037001;28;19932;-77
2022/12/10 09:14:48;;;;;;;;;;;-1.10;99.90;;;;;;5034528;28;20860;-77
2022/12/10 09:17:13;;;;;;;;;;;-0.90;99.90;;;;;;5054961;28;19955;-78
2022/12/10 09:19:39;;;;;;;;;;;-0.30;99.90;;;;;;5052224;28;19978;-81
2022/12/10 09:22:04;;;;;;;;;;;0.00;99.90;;;;;;5035001;28;19927;-81
2022/12/10 09:24:30;;;;;;;;;;;0.10;99.90;;;;;;5021536;28;20309;-78
2022/12/10 09:26:55;;;;;;;;;;;-0.10;99.90;;;;;;5051434;28;19929;-78
2022/12/10 09:29:21;;;;;;;;;;;-0.10;99.90;;;;;;5054148;28;19920;-78
2022/12/10 09:31:50;;;;;;;;;;;0.20;99.90;;;;;;5053866;28;19936;-77
2022/12/10 09:34:16;;;;;;;;;;;0.40;99.90;;;;;;5053798;28;19975;-78
2022/12/10 09:36:41;;;;;;;;;;;0.80;99.90;;;;;;5037509;28;20435;-77
2022/12/10 09:39:07;;;;;;;;;;;1.20;99.90;;;;;;5025116;28;20294;-78
2022/12/10 09:41:40;;;;;;;;;;;1.40;99.90;;;;;;5057690;28;19920;-78
2022/12/10 09:44:18;;;;;;;;;;;1.50;99.90;;;;;;5056672;28;19920;-77
2022/12/10 09:47:10;;;;;;;;;;;1.30;99.90;;;;;;5050647;28;19935;-77
2022/12/10 09:49:36;;;;;;;;;;;1.10;99.90;;;;;;5054366;28;19929;-78
2022/12/10 09:52:03;;;;;;;;;;;0.80;99.90;;;;;;5033257;28;19924;-78
2022/12/10 09:54:37;;;;;;;;;;;1.60;99.90;;;;;;5045688;28;19990;-78
2022/12/10 09:57:05;;;;;;;;;;;0.70;99.90;;;;;;5041820;28;20278;-77
2022/12/10 09:59:33;;;;;;;;;;;0.50;99.90;;;;;;5057194;28;19920;-79
2022/12/10 10:02:17;;;;;;;;;;;2.30;99.90;;;;;;5032313;28;19935;-76
2022/12/10 10:04:43;;;;;;;;;;;0.40;99.90;;;;;;5039089;28;19979;-82
2022/12/10 10:07:16;;;;;;;;;;;1.10;99.90;;;;;;5037195;28;19920;-79
2022/12/10 10:09:43;;;;;;;;;;;0.50;99.90;;;;;;5055673;28;19943;-78
2022/12/10 10:12:15;;;;;;;;;;;0.60;99.90;;;;;;5060013;28;19928;-77
2022/12/10 10:14:42;;;;;;;;;;;0.70;99.90;;;;;;5053501;28;20271;-79
2022/12/10 10:17:20;;;;;;;;;;;0.80;99.90;;;;;;5051685;28;20428;-77
2022/12/10 10:19:46;;;;;;;;;;;0.70;99.90;;;;;;5058310;28;19928;-80
2022/12/10 10:22:11;;;;;;;;;;;1.30;99.90;;;;;;5033462;28;19928;-80
2022/12/10 10:24:46;;;;;;;;;;;1.30;99.90;;;;;;5051053;28;19928;-78
2022/12/10 10:27:14;;;;;;;;;;;0.00;99.90;;;;;;5049354;28;19927;-79
2022/12/10 10:29:40;;;;;;;;;;;-0.10;99.90;;;;;;5053063;28;19924;-78
2022/12/10 10:32:23;;;;;;;;;;;0.00;99.90;;;;;;5036766;28;19925;-78
2022/12/10 10:34:52;;;;;;;;;;;-0.10;99.90;;;;;;5045904;28;19972;-78
2022/12/10 10:37:25;;;;;;;;;;;-0.20;99.90;;;;;;5040995;28;19924;-78
2022/12/10 10:39:51;;;;;;;;;;;-0.10;99.90;;;;;;5049919;28;19968;-79
2022/12/10 10:42:25;;;;;;;;;;;0.00;99.90;;;;;;5037507;28;20021;-78
2022/12/10 10:44:51;;;;;;;;;;;-0.10;99.90;;;;;;5040183;28;19920;-78
2022/12/10 10:47:24;;;;;;;;;;;0.00;99.90;;;;;;5035182;28;19927;-79
2022/12/10 10:49:50;;;;;;;;;;;0.10;99.90;;;;;;5047287;28;19924;-80
2022/12/10 10:52:16;;;;;;;;;;;0.30;99.90;;;;;;5051979;28;19924;-79
2022/12/10 10:54:46;;;;;;;;;;;0.40;99.90;;;;;;5028547;28;19921;-80
2022/12/10 10:57:12;;;;;;;;;;;0.60;99.90;;;;;;5051555;28;19929;-79
2022/12/10 10:59:38;;;;;;;;;;;0.60;99.90;;;;;;5037726;28;19928;-79
2022/12/10 11:02:15;;;;;;;;;;;0.60;99.90;;;;;;5038509;28;19935;-79
2022/12/10 11:04:45;;;;;;;;;;;1.90;99.90;;;;;;5037675;28;19921;-79
2022/12/10 11:07:20;;;;;;;;;;;0.80;99.90;;;;;;5049618;28;19920;-78
2022/12/10 11:09:45;;;;;;;;;;;0.70;99.90;;;;;;5049941;28;20115;-77
2022/12/10 11:12:43;;;;;;;;;;;0.60;99.90;;;;;;5022025;28;19978;-78
2022/12/10 11:15:21;;;;;;;;;;;0.60;99.90;;;;;;4999860;28;19943;-78
2022/12/10 11:17:48;;;;;;;;;;;0.50;99.90;;;;;;5054736;28;19928;-78
2022/12/10 11:20:18;;;;;;;;;;;0.50;99.90;;;;;;5050574;28;19927;-79
2022/12/10 11:22:53;;;;;;;;;;;0.40;99.90;;;;;;5053383;28;19921;-76
2022/12/10 11:25:20;;;;;;;;;;;0.30;99.90;;;;;;5048975;28;20529;-77
2022/12/10 11:27:53;;;;;;;;;;;0.20;99.90;;;;;;5050087;28;19954;-78
2022/12/10 11:30:22;;;;;;;;;;;0.00;99.90;;;;;;5033128;28;19960;-79
2022/12/10 11:32:50;;;;;;;;;;;1.40;99.90;;;;;;5047293;28;20317;-79
2022/12/10 11:35:24;;;;;;;;;;;-0.10;99.90;;;;;;5050043;28;19924;-79
2022/12/10 11:37:50;;;;;;;;;;;-0.10;99.90;;;;;;5048053;28;20417;-79
2022/12/10 11:40:26;;;;;;;;;;;0.00;99.90;;;;;;5039829;28;19956;-82
2022/12/10 11:42:52;;;;;;;;;;;0.00;99.90;;;;;;5039406;28;20734;-81
2022/12/10 11:45:17;;;;;;;;;;;0.00;99.90;;;;;;5048060;28;19945;-81
2022/12/10 11:47:43;;;;;;;;;;;0.60;99.90;;;;;;5051646;28;20430;-79
2022/12/10 11:50:20;;;;;;;;;;;-0.20;99.90;;;;;;5049515;28;19951;-80
2022/12/10 11:52:52;;;;;;;;;;;-0.10;99.90;;;;;;5030158;28;19925;-78
2022/12/10 11:55:36;;;;;;;;;;;-0.10;99.90;;;;;;5045458;28;19986;-79
2022/12/10 11:58:12;;;;;;;;;;;-0.20;99.90;;;;;;5035345;28;19927;-79
2022/12/10 12:00:56;;;;;;;;;;;-0.20;99.90;;;;;;5047115;28;20010;-79
2022/12/10 12:03:31;;;;;;;;;;;-0.30;99.90;;;;;;5041732;28;20320;-80
2022/12/10 12:06:15;;;;;;;;;;;-0.30;99.90;;;;;;5047226;28;19956;-78
2022/12/10 12:08:59;;;;;;;;;;;-0.50;99.90;;;;;;5030171;28;19929;-79
2022/12/10 12:11:34;;;;;;;;;;;-0.60;99.90;;;;;;5030261;28;19936;-78
2022/12/10 12:14:18;;;;;;;;;;;-0.60;99.90;;;;;;5035780;28;19944;-77
2022/12/10 12:17:04;;;;;;;;;;;-0.60;99.90;;;;;;5031629;28;19929;-78
2022/12/10 12:19:38;;;;;;;;;;;-0.50;99.90;;;;;;5045674;28;19928;-79
2022/12/10 12:22:15;;;;;;;;;;;-0.50;99.90;;;;;;5048562;28;20395;-79
2022/12/10 12:24:44;;;;;;;;;;;-0.50;99.90;;;;;;5056327;28;19925;-78
2022/12/10 12:27:21;;;;;;;;;;;-0.50;99.90;;;;;;5046464;28;20019;-78
2022/12/10 12:29:50;;;;;;;;;;;-0.50;99.90;;;;;;5051305;28;20011;-77
2022/12/10 12:32:22;;;;;;;;;;;-0.60;99.90;;;;;;5048572;28;19925;-77
2022/12/10 12:34:51;;;;;;;;;;;-0.60;99.90;;;;;;5027476;28;20027;-77
2022/12/10 12:37:18;;;;;;;;;;;-0.70;99.90;;;;;;5047872;28;19928;-77
2022/12/10 12:39:49;;;;;;;;;;;-0.80;99.90;;;;;;5049657;28;19924;-77
2022/12/10 12:42:29;;;;;;;;;;;-0.80;99.90;;;;;;5045673;28;19921;-77
2022/12/10 12:45:01;;;;;;;;;;;-0.70;99.90;;;;;;5045758;28;19960;-77
2022/12/10 12:47:26;;;;;;;;;;;-0.70;99.90;;;;;;5039479;28;20004;-77
2022/12/10 12:49:53;;;;;;;;;;;0.20;99.90;;;;;;5035904;28;20019;-77
2022/12/10 12:52:44;;;;;;;;;;;-0.40;99.90;;;;;;5033254;28;19925;-77
2022/12/10 12:55:18;;;;;;;;;;;-0.70;99.90;;;;;;5024408;28;19925;-77
2022/12/10 12:57:53;;;;;;;;;;;-0.70;99.90;;;;;;5031910;28;19924;-77
2022/12/10 13:00:21;;;;;;;;;;;-0.70;99.90;;;;;;5048253;28;19925;-77
2022/12/10 13:03:06;;;;;;;;;;;-0.70;99.90;;;;;;5044750;28;20409;-77
2022/12/10 13:05:32;;;;;;;;;;;-0.70;99.90;;;;;;5043567;28;19929;-77
2022/12/10 13:08:17;;;;;;;;;;;-0.80;99.90;;;;;;5041604;28;20212;-77
2022/12/10 13:10:44;;;;;;;;;;;-0.80;99.90;;;;;;5046126;28;19986;-77
2022/12/10 13:13:24;;;;;;;;;;;-0.90;99.90;;;;;;5055828;28;19974;-77
2022/12/10 13:15:50;;;;;;;;;;;-0.90;99.90;;;;;;5048774;28;20290;-77
2022/12/10 13:18:18;;;;;;;;;;;-0.90;99.90;;;;;;5048876;28;19981;-77
2022/12/10 13:20:49;;;;;;;;;;;-0.90;99.90;;;;;;5035487;28;19920;-77
2022/12/10 13:23:24;;;;;;;;;;;-0.80;99.90;;;;;;5035242;28;19921;-77
2022/12/10 13:25:50;;;;;;;;;;;-0.90;99.90;;;;;;5049184;28;19979;-77
2022/12/10 13:28:35;;;;;;;;;;;-0.80;99.90;;;;;;5050205;28;19952;-77
2022/12/10 13:31:07;;;;;;;;;;;-0.80;99.90;;;;;;5018459;28;20008;-77
2022/12/10 13:33:49;;;;;;;;;;;-0.80;99.90;;;;;;5045973;28;19954;-78
2022/12/10 13:36:19;;;;;;;;;;;-0.80;99.90;;;;;;5040632;28;19929;-78
2022/12/10 13:38:55;;;;;;;;;;;-0.70;99.90;;;;;;5043256;28;20610;-79
2022/12/10 13:44:24;;;;;;;;;;;-0.80;99.90;;;;;;5030335;28;20558;-79
2022/12/10 13:46:52;;;;;;;;;;;-0.80;99.90;;;;;;5038086;28;19929;-78
2022/12/10 13:49:19;;;;;;;;;;;-0.80;99.90;;;;;;5036007;28;19929;-79
2022/12/10 13:51:53;;;;;;;;;;;-0.80;99.90;;;;;;5028862;28;19990;-79
2022/12/10 13:54:37;;;;;;;;;;;-0.80;99.90;;;;;;5048374;28;19974;-79
2022/12/10 13:57:08;;;;;;;;;;;-0.70;99.90;;;;;;5041167;28;20388;-79
2022/12/10 13:59:46;;;;;;;;;;;-0.70;99.90;;;;;;5050110;28;20456;-79
2022/12/10 14:02:12;;;;;;;;;;;-0.70;99.90;;;;;;5039722;28;19921;-79
2022/12/10 14:04:37;;;;;;;;;;;-0.70;99.90;;;;;;5041802;28;20271;-79
2022/12/10 14:07:03;;;;;;;;;;;-0.70;99.90;;;;;;5040838;28;19931;-78
2022/12/10 14:09:34;;;;;;;;;;;-0.80;99.90;;;;;;5013984;28;20019;-79
2022/12/10 14:12:00;;;;;;;;;;;-0.80;99.90;;;;;;5050630;28;20370;-77
2022/12/10 14:14:34;;;;;;;;;;;-0.80;99.90;;;;;;5026147;28;19929;-80
2022/12/10 14:17:00;;;;;;;;;;;-0.60;99.90;;;;;;5034715;28;20973;-82
2022/12/10 14:19:27;;;;;;;;;;;-0.90;99.90;;;;;;5033270;28;19939;-81
2022/12/10 14:21:53;;;;;;;;;;;-0.90;99.90;;;;;;5050052;28;19921;-79
2022/12/10 14:24:38;;;;;;;;;;;-0.90;99.90;;;;;;5048179;28;19920;-78
2022/12/10 14:27:14;;;;;;;;;;;-0.90;99.90;;;;;;5045703;28;19932;-77
2022/12/10 14:29:51;;;;;;;;;;;-0.90;99.90;;;;;;5028769;28;19951;-78
2022/12/10 14:32:18;;;;;;;;;;;-0.90;99.90;;;;;;5047710;28;19932;-78
2022/12/10 14:34:48;;;;;;;;;;;-1.00;99.90;;;;;;5043791;28;19974;-79
2022/12/10 14:37:14;;;;;;;;;;;-1.00;99.90;;;;;;5047884;28;20047;-78